sensor_id;sensor_type;location;lat;lon;timestamp;temperature;humidity
24226;DHT22;51462;51.422;5.514;2023-06-10T00:01:58;24.70;99.90
24226;DHT22;51462;51.422;5.514;2023-06-10T00:04:25;24.70;99.90
24226;DHT22;51462;51.422;5.514;2023-06-10T00:06:51;24.70;99.90
24226;DHT22;51462;51.422;5.514;2023-06-10T00:09:16;24.70;99.90
24226;DHT22;51462;51.422;5.514;2023-06-10T00:11:44;24.70;99.90
24226;DHT22;51462;51.422;5.514;2023-06-10T00:14:09;24.60;99.90
24226;DHT22;51462;51.422;5.514;2023-06-10T00:16:35;24.60;99.90
24226;DHT22;51462;51.422;5.514;2023-06-10T00:19:02;24.40;99.90
24226;DHT22;51462;51.422;5.514;2023-06-10T00:21:28;24.30;99.90
24226;DHT22;51462;51.422;5.514;2023-06-10T00:23:54;24.30;99.90
24226;DHT22;51462;51.422;5.514;2023-06-10T00:26:23;24.40;99.90
24226;DHT22;51462;51.422;5.514;2023-06-10T00:28:49;24.20;99.90
24226;DHT22;51462;51.422;5.514;2023-06-10T00:31:16;24.20;99.90
24226;DHT22;51462;51.422;5.514;2023-06-10T00:33:41;24.10;99.90
24226;DHT22;51462;51.422;5.514;2023-06-10T00:36:08;24.00;99.90
24226;DHT22;51462;51.422;5.514;2023-06-10T00:38:34;23.90;99.90
24226;DHT22;51462;51.422;5.514;2023-06-10T00:40:59;23.90;99.90
24226;DHT22;51462;51.422;5.514;2023-06-10T00:43:25;23.80;99.90
24226;DHT22;51462;51.422;5.514;2023-06-10T00:45:51;23.80;99.90
24226;DHT22;51462;51.422;5.514;2023-06-10T00:48:17;23.70;99.90
24226;DHT22;51462;51.422;5.514;2023-06-10T00:50:44;23.80;99.90
24226;DHT22;51462;51.422;5.514;2023-06-10T00:53:09;23.80;99.90
24226;DHT22;51462;51.422;5.514;2023-06-10T00:55:36;23.80;99.90
24226;DHT22;51462;51.422;5.514;2023-06-10T00:58:03;23.70;99.90
24226;DHT22;51462;51.422;5.514;2023-06-10T01:00:29;23.60;99.90
24226;DHT22;51462;51.422;5.514;2023-06-10T01:02:54;23.50;99.90
24226;DHT22;51462;51.422;5.514;2023-06-10T01:05:21;23.50;99.90
24226;DHT22;51462;51.422;5.514;2023-06-10T01:08:06;23.40;99.90
24226;DHT22;51462;51.422;5.514;2023-06-10T01:10:38;23.30;99.90
24226;DHT22;51462;51.422;5.514;2023-06-10T01:13:08;23.30;99.90
24226;DHT22;51462;51.422;5.514;2023-06-10T01:15:37;23.20;99.90
24226;DHT22;51462;51.422;5.514;2023-06-10T01:18:05;23.10;99.90
24226;DHT22;51462;51.422;5.514;2023-06-10T01:20:34;23.10;99.90
24226;DHT22;51462;51.422;5.514;2023-06-10T01:23:02;23.00;99.90
24226;DHT22;51462;51.422;5.514;2023-06-10T01:25:29;22.90;99.90
24226;DHT22;51462;51.422;5.514;2023-06-10T01:28:12;22.80;99.90
24226;DHT22;51462;51.422;5.514;2023-06-10T01:33:21;22.80;99.90
24226;DHT22;51462;51.422;5.514;2023-06-10T01:35:50;22.70;99.90
24226;DHT22;51462;51.422;5.514;2023-06-10T01:38:15;22.50;99.90
24226;DHT22;51462;51.422;5.514;2023-06-10T01:40:43;22.40;99.90
24226;DHT22;51462;51.422;5.514;2023-06-10T01:43:09;22.30;99.90
24226;DHT22;51462;51.422;5.514;2023-06-10T01:45:35;22.30;99.90
24226;DHT22;51462;51.422;5.514;2023-06-10T01:48:00;22.40;99.90
24226;DHT22;51462;51.422;5.514;2023-06-10T01:50:26;22.30;99.90
24226;DHT22;51462;51.422;5.514;2023-06-10T01:52:51;22.20;99.90
24226;DHT22;51462;51.422;5.514;2023-06-10T01:55:17;22.20;99.90
24226;DHT22;51462;51.422;5.514;2023-06-10T01:57:43;22.10;99.90
24226;DHT22;51462;51.422;5.514;2023-06-10T02:00:09;22.20;99.90
24226;DHT22;51462;51.422;5.514;2023-06-10T02:02:35;22.10;99.90
24226;DHT22;51462;51.422;5.514;2023-06-10T02:05:01;22.00;99.90
24226;DHT22;51462;51.422;5.514;2023-06-10T02:07:27;22.00;99.90
24226;DHT22;51462;51.422;5.514;2023-06-10T02:09:52;21.90;99.90
24226;DHT22;51462;51.422;5.514;2023-06-10T02:12:18;21.70;99.90
24226;DHT22;51462;51.422;5.514;2023-06-10T02:14:43;21.80;99.90
24226;DHT22;51462;51.422;5.514;2023-06-10T02:17:09;21.80;99.90
24226;DHT22;51462;51.422;5.514;2023-06-10T02:19:38;21.70;99.90
24226;DHT22;51462;51.422;5.514;2023-06-10T02:22:08;21.80;99.90
24226;DHT22;51462;51.422;5.514;2023-06-10T02:24:35;21.90;99.90
24226;DHT22;51462;51.422;5.514;2023-06-10T02:27:00;21.70;99.90
24226;DHT22;51462;51.422;5.514;2023-06-10T02:29:27;21.70;99.90
24226;DHT22;51462;51.422;5.514;2023-06-10T02:31:52;21.60;99.90
24226;DHT22;51462;51.422;5.514;2023-06-10T02:34:18;21.70;99.90
24226;DHT22;51462;51.422;5.514;2023-06-10T02:36:44;21.80;99.90
24226;DHT22;51462;51.422;5.514;2023-06-10T02:39:09;21.70;99.90
24226;DHT22;51462;51.422;5.514;2023-06-10T02:41:35;21.60;99.90
24226;DHT22;51462;51.422;5.514;2023-06-10T02:44:01;21.60;99.90
24226;DHT22;51462;51.422;5.514;2023-06-10T02:46:26;21.60;99.90
24226;DHT22;51462;51.422;5.514;2023-06-10T02:48:54;21.50;99.90
24226;DHT22;51462;51.422;5.514;2023-06-10T02:51:19;21.70;99.90
24226;DHT22;51462;51.422;5.514;2023-06-10T02:53:46;21.40;99.90
24226;DHT22;51462;51.422;5.514;2023-06-10T02:56:15;21.40;99.90
24226;DHT22;51462;51.422;5.514;2023-06-10T02:58:41;21.60;99.90
24226;DHT22;51462;51.422;5.514;2023-06-10T03:01:07;21.60;99.90
24226;DHT22;51462;51.422;5.514;2023-06-10T03:03:34;21.50;99.90
24226;DHT22;51462;51.422;5.514;2023-06-10T03:06:02;21.30;99.90
24226;DHT22;51462;51.422;5.514;2023-06-10T03:08:28;21.30;99.90
24226;DHT22;51462;51.422;5.514;2023-06-10T03:10:53;21.30;99.90
24226;DHT22;51462;51.422;5.514;2023-06-10T03:13:19;21.30;99.90
24226;DHT22;51462;51.422;5.514;2023-06-10T03:15:45;21.20;99.90
24226;DHT22;51462;51.422;5.514;2023-06-10T03:18:11;21.10;99.90
24226;DHT22;51462;51.422;5.514;2023-06-10T03:20:37;21.10;99.90
24226;DHT22;51462;51.422;5.514;2023-06-10T03:23:04;21.00;99.90
24226;DHT22;51462;51.422;5.514;2023-06-10T03:25:31;20.90;99.90
24226;DHT22;51462;51.422;5.514;2023-06-10T03:27:57;20.90;99.90
24226;DHT22;51462;51.422;5.514;2023-06-10T03:30:23;20.90;99.90
24226;DHT22;51462;51.422;5.514;2023-06-10T03:32:48;20.80;99.90
24226;DHT22;51462;51.422;5.514;2023-06-10T03:35:14;20.70;99.90
24226;DHT22;51462;51.422;5.514;2023-06-10T03:37:40;20.80;99.90
24226;DHT22;51462;51.422;5.514;2023-06-10T03:40:07;20.70;99.90
24226;DHT22;51462;51.422;5.514;2023-06-10T03:42:34;20.60;99.90
24226;DHT22;51462;51.422;5.514;2023-06-10T03:44:59;20.50;99.90
24226;DHT22;51462;51.422;5.514;2023-06-10T03:47:25;20.40;99.90
24226;DHT22;51462;51.422;5.514;2023-06-10T03:49:51;20.30;99.90
24226;DHT22;51462;51.422;5.514;2023-06-10T03:52:17;20.30;99.90
24226;DHT22;51462;51.422;5.514;2023-06-10T03:54:43;20.40;99.90
24226;DHT22;51462;51.422;5.514;2023-06-10T03:57:08;20.40;99.90
24226;DHT22;51462;51.422;5.514;2023-06-10T03:59:34;20.30;99.90
24226;DHT22;51462;51.422;5.514;2023-06-10T04:01:59;20.20;99.90
24226;DHT22;51462;51.422;5.514;2023-06-10T04:04:25;20.40;99.90
24226;DHT22;51462;51.422;5.514;2023-06-10T04:06:51;20.40;99.90
24226;DHT22;51462;51.422;5.514;2023-06-10T04:09:17;20.40;99.90
24226;DHT22;51462;51.422;5.514;2023-06-10T04:11:42;20.50;99.90
24226;DHT22;51462;51.422;5.514;2023-06-10T04:14:08;20.50;99.90
24226;DHT22;51462;51.422;5.514;2023-06-10T04:16:34;20.40;99.90
24226;DHT22;51462;51.422;5.514;2023-06-10T04:19:00;20.40;99.90
24226;DHT22;51462;51.422;5.514;2023-06-10T04:21:26;20.40;99.90
24226;DHT22;51462;51.422;5.514;2023-06-10T04:23:52;20.40;99.90
24226;DHT22;51462;51.422;5.514;2023-06-10T04:26:18;20.50;99.90
24226;DHT22;51462;51.422;5.514;2023-06-10T04:28:43;20.40;99.90
24226;DHT22;51462;51.422;5.514;2023-06-10T04:31:09;20.60;99.90
24226;DHT22;51462;51.422;5.514;2023-06-10T04:33:35;20.60;99.90
24226;DHT22;51462;51.422;5.514;2023-06-10T04:36:01;20.80;99.90
24226;DHT22;51462;51.422;5.514;2023-06-10T04:38:26;20.70;99.90
24226;DHT22;51462;51.422;5.514;2023-06-10T04:40:52;20.70;99.90
24226;DHT22;51462;51.422;5.514;2023-06-10T04:43:18;20.70;99.90
24226;DHT22;51462;51.422;5.514;2023-06-10T04:45:43;20.70;99.90
24226;DHT22;51462;51.422;5.514;2023-06-10T04:48:10;20.80;99.90
24226;DHT22;51462;51.422;5.514;2023-06-10T04:50:36;20.70;99.90
24226;DHT22;51462;51.422;5.514;2023-06-10T04:53:02;20.70;99.90
24226;DHT22;51462;51.422;5.514;2023-06-10T04:55:28;20.50;99.90
24226;DHT22;51462;51.422;5.514;2023-06-10T04:57:53;20.50;99.90
24226;DHT22;51462;51.422;5.514;2023-06-10T05:00:19;20.40;99.90
24226;DHT22;51462;51.422;5.514;2023-06-10T05:02:44;20.50;99.90
24226;DHT22;51462;51.422;5.514;2023-06-10T05:05:10;20.50;99.90
24226;DHT22;51462;51.422;5.514;2023-06-10T05:07:36;20.60;99.90
24226;DHT22;51462;51.422;5.514;2023-06-10T05:10:02;20.60;99.90
24226;DHT22;51462;51.422;5.514;2023-06-10T05:12:28;20.60;99.90
24226;DHT22;51462;51.422;5.514;2023-06-10T05:14:53;20.70;99.90
24226;DHT22;51462;51.422;5.514;2023-06-10T05:17:20;20.70;99.90
24226;DHT22;51462;51.422;5.514;2023-06-10T05:19:45;20.70;99.90
24226;DHT22;51462;51.422;5.514;2023-06-10T05:22:12;20.70;99.90
24226;DHT22;51462;51.422;5.514;2023-06-10T05:24:38;20.70;99.90
24226;DHT22;51462;51.422;5.514;2023-06-10T05:27:04;20.70;99.90
24226;DHT22;51462;51.422;5.514;2023-06-10T05:29:32;20.60;99.90
24226;DHT22;51462;51.422;5.514;2023-06-10T05:31:57;20.80;99.90
24226;DHT22;51462;51.422;5.514;2023-06-10T05:34:25;20.70;99.90
24226;DHT22;51462;51.422;5.514;2023-06-10T05:36:51;20.80;99.90
24226;DHT22;51462;51.422;5.514;2023-06-10T05:39:16;21.00;99.90
24226;DHT22;51462;51.422;5.514;2023-06-10T05:41:42;21.10;99.90
24226;DHT22;51462;51.422;5.514;2023-06-10T05:44:07;20.90;99.90
24226;DHT22;51462;51.422;5.514;2023-06-10T05:46:33;21.10;99.90
24226;DHT22;51462;51.422;5.514;2023-06-10T05:48:59;21.10;99.90
24226;DHT22;51462;51.422;5.514;2023-06-10T05:51:24;21.20;99.90
24226;DHT22;51462;51.422;5.514;2023-06-10T05:53:50;21.20;99.90
24226;DHT22;51462;51.422;5.514;2023-06-10T05:56:16;21.30;99.90
24226;DHT22;51462;51.422;5.514;2023-06-10T05:58:42;21.40;99.90
24226;DHT22;51462;51.422;5.514;2023-06-10T06:01:07;21.40;99.90
24226;DHT22;51462;51.422;5.514;2023-06-10T06:03:33;21.40;99.90
24226;DHT22;51462;51.422;5.514;2023-06-10T06:05:58;21.40;99.90
24226;DHT22;51462;51.422;5.514;2023-06-10T06:08:24;21.40;99.90
24226;DHT22;51462;51.422;5.514;2023-06-10T06:10:50;21.40;99.90
24226;DHT22;51462;51.422;5.514;2023-06-10T06:13:15;21.60;99.90
24226;DHT22;51462;51.422;5.514;2023-06-10T06:15:41;21.60;99.90
24226;DHT22;51462;51.422;5.514;2023-06-10T06:18:07;21.50;99.90
24226;DHT22;51462;51.422;5.514;2023-06-10T06:20:32;21.50;99.90
24226;DHT22;51462;51.422;5.514;2023-06-10T06:22:58;21.50;99.90
24226;DHT22;51462;51.422;5.514;2023-06-10T06:25:23;21.50;99.90
24226;DHT22;51462;51.422;5.514;2023-06-10T06:27:49;21.60;99.90
24226;DHT22;51462;51.422;5.514;2023-06-10T06:30:14;21.60;99.90
24226;DHT22;51462;51.422;5.514;2023-06-10T06:32:40;21.60;99.90
24226;DHT22;51462;51.422;5.514;2023-06-10T06:35:06;21.70;99.90
24226;DHT22;51462;51.422;5.514;2023-06-10T06:37:33;21.80;99.90
24226;DHT22;51462;51.422;5.514;2023-06-10T06:39:59;21.80;99.90
24226;DHT22;51462;51.422;5.514;2023-06-10T06:42:24;21.90;99.90
24226;DHT22;51462;51.422;5.514;2023-06-10T06:44:50;21.90;99.90
24226;DHT22;51462;51.422;5.514;2023-06-10T06:47:16;21.90;99.90
24226;DHT22;51462;51.422;5.514;2023-06-10T06:49:47;22.00;99.90
24226;DHT22;51462;51.422;5.514;2023-06-10T06:52:14;22.00;99.90
24226;DHT22;51462;51.422;5.514;2023-06-10T06:54:40;22.00;99.90
24226;DHT22;51462;51.422;5.514;2023-06-10T06:57:06;22.10;99.90
24226;DHT22;51462;51.422;5.514;2023-06-10T06:59:32;22.10;99.90
24226;DHT22;51462;51.422;5.514;2023-06-10T07:01:58;22.10;99.90
24226;DHT22;51462;51.422;5.514;2023-06-10T07:04:24;22.10;99.90
24226;DHT22;51462;51.422;5.514;2023-06-10T07:06:50;22.10;99.90
24226;DHT22;51462;51.422;5.514;2023-06-10T07:09:15;22.20;99.90
24226;DHT22;51462;51.422;5.514;2023-06-10T07:11:41;22.20;99.90
24226;DHT22;51462;51.422;5.514;2023-06-10T07:14:07;22.30;99.90
24226;DHT22;51462;51.422;5.514;2023-06-10T07:16:32;22.30;99.90
24226;DHT22;51462;51.422;5.514;2023-06-10T07:18:58;22.30;99.90
24226;DHT22;51462;51.422;5.514;2023-06-10T07:21:23;22.40;99.90
24226;DHT22;51462;51.422;5.514;2023-06-10T07:23:49;22.50;99.90
24226;DHT22;51462;51.422;5.514;2023-06-10T07:26:17;22.50;99.90
24226;DHT22;51462;51.422;5.514;2023-06-10T07:28:43;22.50;99.90
24226;DHT22;51462;51.422;5.514;2023-06-10T07:31:09;22.60;99.90
24226;DHT22;51462;51.422;5.514;2023-06-10T07:33:34;22.70;99.90
24226;DHT22;51462;51.422;5.514;2023-06-10T07:36:00;22.60;99.90
24226;DHT22;51462;51.422;5.514;2023-06-10T07:38:26;22.70;99.90
24226;DHT22;51462;51.422;5.514;2023-06-10T07:40:52;22.70;99.90
24226;DHT22;51462;51.422;5.514;2023-06-10T07:43:18;22.80;99.90
24226;DHT22;51462;51.422;5.514;2023-06-10T07:45:44;22.80;99.90
24226;DHT22;51462;51.422;5.514;2023-06-10T07:48:09;22.90;99.90
24226;DHT22;51462;51.422;5.514;2023-06-10T07:50:35;23.00;99.90
24226;DHT22;51462;51.422;5.514;2023-06-10T07:53:01;23.10;99.90
24226;DHT22;51462;51.422;5.514;2023-06-10T07:55:26;23.10;99.90
24226;DHT22;51462;51.422;5.514;2023-06-10T07:57:53;23.20;99.90
24226;DHT22;51462;51.422;5.514;2023-06-10T08:00:19;23.20;99.90
24226;DHT22;51462;51.422;5.514;2023-06-10T08:02:44;23.20;99.90
24226;DHT22;51462;51.422;5.514;2023-06-10T08:05:10;23.30;99.90
24226;DHT22;51462;51.422;5.514;2023-06-10T08:07:36;23.30;99.90
24226;DHT22;51462;51.422;5.514;2023-06-10T08:10:02;23.50;99.90
24226;DHT22;51462;51.422;5.514;2023-06-10T08:12:28;23.50;99.90
24226;DHT22;51462;51.422;5.514;2023-06-10T08:14:53;23.60;99.90
24226;DHT22;51462;51.422;5.514;2023-06-10T08:17:20;23.50;99.90
24226;DHT22;51462;51.422;5.514;2023-06-10T08:19:45;23.60;99.90
24226;DHT22;51462;51.422;5.514;2023-06-10T08:22:11;23.80;99.90
24226;DHT22;51462;51.422;5.514;2023-06-10T08:24:37;23.70;99.90
24226;DHT22;51462;51.422;5.514;2023-06-10T08:27:03;23.70;99.90
24226;DHT22;51462;51.422;5.514;2023-06-10T08:29:28;23.80;99.90
24226;DHT22;51462;51.422;5.514;2023-06-10T08:31:56;23.90;99.90
24226;DHT22;51462;51.422;5.514;2023-06-10T08:34:22;24.00;99.90
24226;DHT22;51462;51.422;5.514;2023-06-10T08:36:47;24.00;99.90
24226;DHT22;51462;51.422;5.514;2023-06-10T08:39:18;23.90;99.90
24226;DHT22;51462;51.422;5.514;2023-06-10T08:42:00;24.10;99.90
24226;DHT22;51462;51.422;5.514;2023-06-10T08:44:29;24.20;99.90
24226;DHT22;51462;51.422;5.514;2023-06-10T08:46:59;24.30;99.90
24226;DHT22;51462;51.422;5.514;2023-06-10T08:49:26;24.30;99.90
24226;DHT22;51462;51.422;5.514;2023-06-10T08:51:58;24.30;99.90
24226;DHT22;51462;51.422;5.514;2023-06-10T08:54:27;24.40;99.90
24226;DHT22;51462;51.422;5.514;2023-06-10T08:56:55;24.50;99.90
24226;DHT22;51462;51.422;5.514;2023-06-10T08:59:23;24.40;99.90
24226;DHT22;51462;51.422;5.514;2023-06-10T09:01:50;24.40;99.90
24226;DHT22;51462;51.422;5.514;2023-06-10T09:04:17;24.50;99.90
24226;DHT22;51462;51.422;5.514;2023-06-10T09:06:43;24.70;99.90
24226;DHT22;51462;51.422;5.514;2023-06-10T09:09:10;24.80;99.90
24226;DHT22;51462;51.422;5.514;2023-06-10T09:11:38;24.70;99.90
24226;DHT22;51462;51.422;5.514;2023-06-10T09:14:03;24.70;99.90
24226;DHT22;51462;51.422;5.514;2023-06-10T09:16:29;24.90;99.90
24226;DHT22;51462;51.422;5.514;2023-06-10T09:18:55;25.00;99.90
24226;DHT22;51462;51.422;5.514;2023-06-10T09:21:24;25.00;99.90
24226;DHT22;51462;51.422;5.514;2023-06-10T09:23:50;25.00;99.90
24226;DHT22;51462;51.422;5.514;2023-06-10T09:26:17;25.30;99.90
24226;DHT22;51462;51.422;5.514;2023-06-10T09:28:48;25.20;99.90
24226;DHT22;51462;51.422;5.514;2023-06-10T09:31:16;25.30;99.90
24226;DHT22;51462;51.422;5.514;2023-06-10T09:33:47;25.30;99.90
24226;DHT22;51462;51.422;5.514;2023-06-10T09:36:21;25.30;99.90
24226;DHT22;51462;51.422;5.514;2023-06-10T09:38:49;25.40;99.90
24226;DHT22;51462;51.422;5.514;2023-06-10T09:41:16;25.70;99.90
24226;DHT22;51462;51.422;5.514;2023-06-10T09:43:43;25.60;99.90
24226;DHT22;51462;51.422;5.514;2023-06-10T09:46:19;25.60;99.90
24226;DHT22;51462;51.422;5.514;2023-06-10T09:48:45;25.60;99.90
24226;DHT22;51462;51.422;5.514;2023-06-10T09:51:12;25.50;99.90
24226;DHT22;51462;51.422;5.514;2023-06-10T09:53:38;25.60;99.90
24226;DHT22;51462;51.422;5.514;2023-06-10T09:56:04;25.80;99.90
24226;DHT22;51462;51.422;5.514;2023-06-10T09:58:39;25.70;99.90
24226;DHT22;51462;51.422;5.514;2023-06-10T10:01:12;26.10;99.90
24226;DHT22;51462;51.422;5.514;2023-06-10T10:03:45;26.00;99.90
24226;DHT22;51462;51.422;5.514;2023-06-10T10:06:12;26.10;99.90
24226;DHT22;51462;51.422;5.514;2023-06-10T10:08:39;26.00;99.90
24226;DHT22;51462;51.422;5.514;2023-06-10T10:11:04;25.90;99.90
24226;DHT22;51462;51.422;5.514;2023-06-10T10:13:33;26.00;99.90
24226;DHT22;51462;51.422;5.514;2023-06-10T10:16:04;26.40;99.90
24226;DHT22;51462;51.422;5.514;2023-06-10T10:18:31;26.40;99.90
24226;DHT22;51462;51.422;5.514;2023-06-10T10:21:01;26.40;99.90
24226;DHT22;51462;51.422;5.514;2023-06-10T10:23:38;26.50;99.90
24226;DHT22;51462;51.422;5.514;2023-06-10T10:26:09;26.70;99.90
24226;DHT22;51462;51.422;5.514;2023-06-10T10:28:41;26.60;99.90
24226;DHT22;51462;51.422;5.514;2023-06-10T10:31:09;26.80;99.90
24226;DHT22;51462;51.422;5.514;2023-06-10T10:33:48;26.80;99.90
24226;DHT22;51462;51.422;5.514;2023-06-10T10:36:15;27.10;99.90
24226;DHT22;51462;51.422;5.514;2023-06-10T10:38:41;27.10;99.90
24226;DHT22;51462;51.422;5.514;2023-06-10T10:41:08;27.20;99.90
24226;DHT22;51462;51.422;5.514;2023-06-10T10:43:34;27.20;99.90
24226;DHT22;51462;51.422;5.514;2023-06-10T10:46:00;27.80;99.90
24226;DHT22;51462;51.422;5.514;2023-06-10T10:48:27;27.40;99.90
24226;DHT22;51462;51.422;5.514;2023-06-10T10:50:58;27.80;99.90
24226;DHT22;51462;51.422;5.514;2023-06-10T10:53:24;27.80;99.90
24226;DHT22;51462;51.422;5.514;2023-06-10T10:56:07;28.00;99.90
24226;DHT22;51462;51.422;5.514;2023-06-10T10:58:33;27.80;99.90
24226;DHT22;51462;51.422;5.514;2023-06-10T11:00:59;27.70;99.90
24226;DHT22;51462;51.422;5.514;2023-06-10T11:03:29;28.20;99.90
24226;DHT22;51462;51.422;5.514;2023-06-10T11:05:57;27.80;99.90
24226;DHT22;51462;51.422;5.514;2023-06-10T11:10:57;27.90;99.90
24226;DHT22;51462;51.422;5.514;2023-06-10T11:13:23;27.90;99.90
24226;DHT22;51462;51.422;5.514;2023-06-10T11:15:50;28.00;99.90
24226;DHT22;51462;51.422;5.514;2023-06-10T11:18:26;28.40;99.90
24226;DHT22;51462;51.422;5.514;2023-06-10T11:21:02;28.40;99.90
24226;DHT22;51462;51.422;5.514;2023-06-10T11:23:34;28.80;99.90
24226;DHT22;51462;51.422;5.514;2023-06-10T11:34:06;28.50;99.90
24226;DHT22;51462;51.422;5.514;2023-06-10T11:36:33;28.60;99.90
24226;DHT22;51462;51.422;5.514;2023-06-10T11:39:01;29.00;99.90
24226;DHT22;51462;51.422;5.514;2023-06-10T11:41:29;29.00;99.90
24226;DHT22;51462;51.422;5.514;2023-06-10T11:43:56;29.10;99.90
24226;DHT22;51462;51.422;5.514;2023-06-10T11:46:22;29.00;99.90
24226;DHT22;51462;51.422;5.514;2023-06-10T11:48:57;28.60;99.90
24226;DHT22;51462;51.422;5.514;2023-06-10T11:51:28;29.30;99.90
24226;DHT22;51462;51.422;5.514;2023-06-10T11:53:54;29.10;98.30
24226;DHT22;51462;51.422;5.514;2023-06-10T11:56:21;29.20;99.90
24226;DHT22;51462;51.422;5.514;2023-06-10T11:58:59;29.10;99.90
24226;DHT22;51462;51.422;5.514;2023-06-10T12:01:29;29.30;99.90
24226;DHT22;51462;51.422;5.514;2023-06-10T12:04:03;29.50;99.90
24226;DHT22;51462;51.422;5.514;2023-06-10T12:06:45;29.60;99.90
24226;DHT22;51462;51.422;5.514;2023-06-10T12:09:21;29.80;99.90
24226;DHT22;51462;51.422;5.514;2023-06-10T12:11:58;29.80;99.90
24226;DHT22;51462;51.422;5.514;2023-06-10T12:17:15;29.90;98.20
24226;DHT22;51462;51.422;5.514;2023-06-10T12:19:40;30.00;98.00
24226;DHT22;51462;51.422;5.514;2023-06-10T12:22:06;29.60;99.90
24226;DHT22;51462;51.422;5.514;2023-06-10T12:24:32;30.50;98.30
24226;DHT22;51462;51.422;5.514;2023-06-10T12:26:57;30.20;99.30
24226;DHT22;51462;51.422;5.514;2023-06-10T12:29:24;30.20;99.40
24226;DHT22;51462;51.422;5.514;2023-06-10T12:31:58;30.20;96.90
24226;DHT22;51462;51.422;5.514;2023-06-10T12:34:38;30.20;97.70
24226;DHT22;51462;51.422;5.514;2023-06-10T12:37:05;30.40;98.90
24226;DHT22;51462;51.422;5.514;2023-06-10T12:39:32;30.50;97.00
24226;DHT22;51462;51.422;5.514;2023-06-10T12:41:59;31.00;96.00
24226;DHT22;51462;51.422;5.514;2023-06-10T12:44:32;31.30;94.80
24226;DHT22;51462;51.422;5.514;2023-06-10T12:46:58;30.70;98.40
24226;DHT22;51462;51.422;5.514;2023-06-10T12:49:23;31.10;97.30
24226;DHT22;51462;51.422;5.514;2023-06-10T12:51:50;31.60;97.70
24226;DHT22;51462;51.422;5.514;2023-06-10T12:54:15;31.00;98.30
24226;DHT22;51462;51.422;5.514;2023-06-10T12:56:41;31.10;96.90
24226;DHT22;51462;51.422;5.514;2023-06-10T12:59:06;30.70;95.40
24226;DHT22;51462;51.422;5.514;2023-06-10T13:01:32;30.90;97.40
24226;DHT22;51462;51.422;5.514;2023-06-10T13:03:58;31.90;91.30
24226;DHT22;51462;51.422;5.514;2023-06-10T13:06:25;31.40;96.40
24226;DHT22;51462;51.422;5.514;2023-06-10T13:08:51;31.60;97.20
24226;DHT22;51462;51.422;5.514;2023-06-10T13:11:16;31.50;97.30
24226;DHT22;51462;51.422;5.514;2023-06-10T13:13:42;31.10;97.70
24226;DHT22;51462;51.422;5.514;2023-06-10T13:16:08;31.10;95.60
24226;DHT22;51462;51.422;5.514;2023-06-10T13:18:33;32.10;93.00
24226;DHT22;51462;51.422;5.514;2023-06-10T13:21:03;32.20;94.20
24226;DHT22;51462;51.422;5.514;2023-06-10T13:23:29;32.70;94.90
24226;DHT22;51462;51.422;5.514;2023-06-10T13:25:56;32.60;94.10
24226;DHT22;51462;51.422;5.514;2023-06-10T13:28:23;32.80;94.30
24226;DHT22;51462;51.422;5.514;2023-06-10T13:30:48;32.70;92.20
24226;DHT22;51462;51.422;5.514;2023-06-10T13:33:14;32.00;95.50
24226;DHT22;51462;51.422;5.514;2023-06-10T13:35:39;32.00;94.50
24226;DHT22;51462;51.422;5.514;2023-06-10T13:38:06;31.80;96.30
24226;DHT22;51462;51.422;5.514;2023-06-10T13:40:32;32.50;91.70
24226;DHT22;51462;51.422;5.514;2023-06-10T13:42:58;33.20;89.10
24226;DHT22;51462;51.422;5.514;2023-06-10T13:45:23;33.80;89.10
24226;DHT22;51462;51.422;5.514;2023-06-10T13:47:50;34.50;82.20
24226;DHT22;51462;51.422;5.514;2023-06-10T13:50:16;33.20;93.30
24226;DHT22;51462;51.422;5.514;2023-06-10T13:52:41;33.20;91.90
24226;DHT22;51462;51.422;5.514;2023-06-10T13:55:07;33.60;89.70
24226;DHT22;51462;51.422;5.514;2023-06-10T13:57:33;33.50;92.40
24226;DHT22;51462;51.422;5.514;2023-06-10T13:59:59;33.90;91.40
24226;DHT22;51462;51.422;5.514;2023-06-10T14:02:25;34.50;81.10
24226;DHT22;51462;51.422;5.514;2023-06-10T14:04:50;35.60;91.40
24226;DHT22;51462;51.422;5.514;2023-06-10T14:07:16;35.10;87.70
24226;DHT22;51462;51.422;5.514;2023-06-10T14:09:42;33.90;92.60
24226;DHT22;51462;51.422;5.514;2023-06-10T14:12:07;33.70;89.30
24226;DHT22;51462;51.422;5.514;2023-06-10T14:14:34;33.30;92.40
24226;DHT22;51462;51.422;5.514;2023-06-10T14:17:00;33.70;93.40
24226;DHT22;51462;51.422;5.514;2023-06-10T14:19:25;34.10;92.70
24226;DHT22;51462;51.422;5.514;2023-06-10T14:21:51;34.30;84.80
24226;DHT22;51462;51.422;5.514;2023-06-10T14:24:18;34.50;88.50
24226;DHT22;51462;51.422;5.514;2023-06-10T14:26:44;35.10;79.80
24226;DHT22;51462;51.422;5.514;2023-06-10T14:29:09;35.70;91.10
24226;DHT22;51462;51.422;5.514;2023-06-10T14:31:35;35.50;83.50
24226;DHT22;51462;51.422;5.514;2023-06-10T14:34:01;35.00;80.60
24226;DHT22;51462;51.422;5.514;2023-06-10T14:36:26;35.20;87.50
24226;DHT22;51462;51.422;5.514;2023-06-10T14:38:52;34.70;90.60
24226;DHT22;51462;51.422;5.514;2023-06-10T14:41:17;35.40;87.70
24226;DHT22;51462;51.422;5.514;2023-06-10T14:43:43;35.40;90.40
24226;DHT22;51462;51.422;5.514;2023-06-10T14:46:08;35.90;83.20
24226;DHT22;51462;51.422;5.514;2023-06-10T14:48:35;35.50;82.50
24226;DHT22;51462;51.422;5.514;2023-06-10T14:51:01;35.20;89.40
24226;DHT22;51462;51.422;5.514;2023-06-10T14:53:27;35.60;81.20
24226;DHT22;51462;51.422;5.514;2023-06-10T14:55:53;36.20;76.60
24226;DHT22;51462;51.422;5.514;2023-06-10T14:58:18;36.90;79.00
24226;DHT22;51462;51.422;5.514;2023-06-10T15:00:44;36.80;78.20
24226;DHT22;51462;51.422;5.514;2023-06-10T15:03:09;36.60;85.30
24226;DHT22;51462;51.422;5.514;2023-06-10T15:05:35;35.90;84.10
24226;DHT22;51462;51.422;5.514;2023-06-10T15:08:03;35.40;76.90
24226;DHT22;51462;51.422;5.514;2023-06-10T15:10:28;36.00;89.20
24226;DHT22;51462;51.422;5.514;2023-06-10T15:12:54;36.20;76.10
24226;DHT22;51462;51.422;5.514;2023-06-10T15:15:24;36.30;74.50
24226;DHT22;51462;51.422;5.514;2023-06-10T15:17:51;37.00;75.70
24226;DHT22;51462;51.422;5.514;2023-06-10T15:20:16;36.70;73.70
24226;DHT22;51462;51.422;5.514;2023-06-10T15:22:42;36.50;75.40
24226;DHT22;51462;51.422;5.514;2023-06-10T15:25:08;34.60;87.00
24226;DHT22;51462;51.422;5.514;2023-06-10T15:27:33;34.20;90.80
24226;DHT22;51462;51.422;5.514;2023-06-10T15:29:59;34.90;79.40
24226;DHT22;51462;51.422;5.514;2023-06-10T15:32:24;35.20;81.20
24226;DHT22;51462;51.422;5.514;2023-06-10T15:34:50;35.70;75.10
24226;DHT22;51462;51.422;5.514;2023-06-10T15:37:18;35.70;87.00
24226;DHT22;51462;51.422;5.514;2023-06-10T15:39:43;36.00;78.10
24226;DHT22;51462;51.422;5.514;2023-06-10T15:42:09;35.40;84.70
24226;DHT22;51462;51.422;5.514;2023-06-10T15:44:35;35.20;81.60